Terminal Aerodrome Forecast
Issued by NWS Dallas/Fort Worth, TX

Home | Current Version | Previous Version | Text Only | Print | Product List | Glossary On
Versions: 1 2 3 4 5 6 7 8 9 10 11 12 13 14 15 16 17 18 19 20 21 22 23 24 25 26 27 28 29 30 31 32 33 34 35 36
000
FTUS44 KFWD 192100 AAC
TAFDFW
TAF AMD
KDFW 192111Z 1921/2024 01008KT P6SM OVC012
     FM200100 03005KT P6SM OVC020
     FM200600 03003KT 5SM BR OVC015
     FM201800 12006KT P6SM BKN025=

USA.gov is the U.S. government's official web portal to all federal, state and local government web resources and services.